createdAt,value
2023-02-11T00:00:26.580Z,1023.94
2023-02-11T00:01:26.565Z,1023.92
2023-02-11T00:02:26.543Z,1023.81
2023-02-11T00:03:26.626Z,1023.92
2023-02-11T00:04:26.505Z,1023.89
2023-02-11T00:05:26.529Z,1023.88
2023-02-11T00:06:26.480Z,1023.83
2023-02-11T00:07:26.466Z,1023.83
2023-02-11T00:08:26.456Z,1023.81
2023-02-11T00:09:26.453Z,1023.86
2023-02-11T00:10:26.450Z,1023.78
2023-02-11T00:11:26.440Z,1023.75
2023-02-11T00:12:26.442Z,1023.67
2023-02-11T00:13:26.397Z,1023.77
2023-02-11T00:14:26.395Z,1023.84
2023-02-11T00:15:26.415Z,1023.87
2023-02-11T00:16:26.394Z,1023.87
2023-02-11T00:17:26.360Z,1023.92
2023-02-11T00:18:26.351Z,1023.98
2023-02-11T00:19:26.329Z,1024.06
2023-02-11T00:20:26.280Z,1024.08
2023-02-11T00:21:26.295Z,1024.13
2023-02-11T00:22:26.273Z,1024.21
2023-02-11T00:23:26.312Z,1024.28
2023-02-11T00:24:26.241Z,1024.33
2023-02-11T00:25:26.262Z,1024.44
2023-02-11T00:26:26.233Z,1024.29
2023-02-11T00:27:26.239Z,1024.25
2023-02-11T00:28:26.203Z,1024.24
2023-02-11T00:29:26.224Z,1024.23
2023-02-11T00:30:26.221Z,1024.23
2023-02-11T00:31:26.368Z,1024.17
2023-02-11T00:32:26.145Z,1024.10
2023-02-11T00:33:26.140Z,1024.04
2023-02-11T00:34:26.139Z,1024.00
2023-02-11T00:35:26.129Z,1023.95
2023-02-11T00:36:26.129Z,1023.94
2023-02-11T00:37:26.107Z,1023.89
2023-02-11T00:38:26.065Z,1023.81
2023-02-11T00:39:26.087Z,1023.83
2023-02-11T00:40:26.087Z,1023.90
2023-02-11T00:41:26.054Z,1023.86
2023-02-11T00:42:26.052Z,1023.84
2023-02-11T00:43:26.016Z,1023.85
2023-02-11T00:44:26.018Z,1023.89
2023-02-11T00:45:25.994Z,1023.85
2023-02-11T00:46:26.034Z,1023.88
2023-02-11T00:47:26.018Z,1023.85
2023-02-11T00:48:25.949Z,1023.84
2023-02-11T00:49:26.009Z,1023.78
2023-02-11T00:50:25.937Z,1023.80
2023-02-11T00:51:25.927Z,1023.76
2023-02-11T00:52:32.939Z,1023.70
2023-02-11T00:53:25.889Z,1023.70
2023-02-11T00:54:27.365Z,1023.76
2023-02-11T00:55:25.858Z,1023.71
2023-02-11T00:56:25.848Z,1023.72
2023-02-11T00:57:25.817Z,1023.81
2023-02-11T00:58:25.830Z,1023.72
2023-02-11T00:59:25.797Z,1023.81
2023-02-11T01:00:25.789Z,1023.79
2023-02-11T01:01:25.822Z,1023.84
2023-02-11T01:02:25.776Z,1023.80
2023-02-11T01:03:25.749Z,1023.81
2023-02-11T01:04:25.748Z,1023.73
2023-02-11T01:05:25.812Z,1023.66
2023-02-11T01:06:25.708Z,1023.57
2023-02-11T01:07:25.701Z,1023.54
2023-02-11T01:08:25.696Z,1023.59
2023-02-11T01:09:25.681Z,1023.47
2023-02-11T01:10:25.664Z,1023.41
2023-02-11T01:11:25.665Z,1023.40
2023-02-11T01:12:25.656Z,1023.36
2023-02-11T01:13:25.644Z,1023.27
2023-02-11T01:14:25.635Z,1023.34
2023-02-11T01:15:25.611Z,1023.27
2023-02-11T01:16:28.302Z,1023.30
2023-02-11T01:17:25.595Z,1023.26
2023-02-11T01:18:25.576Z,1023.29
2023-02-11T01:19:25.589Z,1023.26
2023-02-11T01:20:25.557Z,1023.17
2023-02-11T01:21:25.532Z,1023.15
2023-02-11T01:22:25.530Z,1023.18
2023-02-11T01:23:25.517Z,1023.13
2023-02-11T01:24:25.513Z,1023.08
2023-02-11T01:25:25.483Z,1023.11
2023-02-11T01:26:25.478Z,1023.00
2023-02-11T01:27:25.453Z,1023.06
2023-02-11T01:28:25.519Z,1023.06
2023-02-11T01:29:25.458Z,1023.09
2023-02-11T01:30:25.440Z,1023.04
2023-02-11T01:31:25.458Z,1023.04
2023-02-11T01:32:25.397Z,1023.10
2023-02-11T01:33:25.382Z,1023.03
2023-02-11T01:34:25.423Z,1023.04
2023-02-11T01:35:25.363Z,1023.00
2023-02-11T01:36:25.356Z,1023.04
2023-02-11T01:37:25.348Z,1022.97
2023-02-11T01:38:25.349Z,1022.93
2023-02-11T01:39:25.305Z,1022.95
2023-02-11T01:40:25.302Z,1023.00
2023-02-11T01:41:25.288Z,1023.09
2023-02-11T01:42:25.263Z,1023.15
2023-02-11T01:43:25.268Z,1023.18
2023-02-11T01:44:25.264Z,1023.19
2023-02-11T01:45:25.266Z,1023.15
2023-02-11T01:46:25.279Z,1023.13
2023-02-11T01:47:25.232Z,1023.18
2023-02-11T01:48:25.193Z,1023.09
2023-02-11T01:49:25.312Z,1023.04
2023-02-11T01:50:25.181Z,1023.05
2023-02-11T01:51:25.198Z,1022.94
2023-02-11T01:52:25.161Z,1022.96
2023-02-11T01:53:25.151Z,1022.99
2023-02-11T01:54:25.144Z,1022.96
2023-02-11T01:55:25.135Z,1023.01
2023-02-11T01:56:25.133Z,1022.97
2023-02-11T01:57:25.353Z,1022.96
2023-02-11T01:58:25.099Z,1022.93
2023-02-11T01:59:25.062Z,1022.96
2023-02-11T02:00:25.057Z,1022.96
2023-02-11T02:01:25.066Z,1022.94
2023-02-11T02:02:25.054Z,1023.05
2023-02-11T02:03:25.062Z,1023.05
2023-02-11T02:04:25.006Z,1023.09
2023-02-11T02:05:25.014Z,1023.05
2023-02-11T02:06:24.997Z,1023.04
2023-02-11T02:07:25.003Z,1023.00
2023-02-11T02:08:24.968Z,1022.99
2023-02-11T02:09:24.950Z,1023.02
2023-02-11T02:10:24.940Z,1022.89
2023-02-11T02:11:24.912Z,1022.94
2023-02-11T02:12:24.901Z,1022.94
2023-02-11T02:13:24.912Z,1022.98
2023-02-11T02:14:24.894Z,1022.87
2023-02-11T02:15:24.862Z,1022.94
2023-02-11T02:16:24.858Z,1022.89
2023-02-11T02:17:24.854Z,1022.84
2023-02-11T02:18:24.818Z,1022.86
2023-02-11T02:19:24.808Z,1022.88
2023-02-11T02:20:24.788Z,1022.93
2023-02-11T02:21:24.799Z,1022.97
2023-02-11T02:22:24.770Z,1022.98
2023-02-11T02:23:24.779Z,1022.90
2023-02-11T02:24:24.763Z,1022.87
2023-02-11T02:25:24.752Z,1022.85
2023-02-11T02:26:24.738Z,1022.77
2023-02-11T02:27:24.706Z,1022.69
2023-02-11T02:28:24.774Z,1022.68
2023-02-11T02:29:24.708Z,1022.67
2023-02-11T02:30:24.703Z,1022.61
2023-02-11T02:31:24.663Z,1022.63
2023-02-11T02:32:24.646Z,1022.64
2023-02-11T02:33:24.679Z,1022.71
2023-02-11T02:34:24.616Z,1022.64
2023-02-11T02:35:24.617Z,1022.59
2023-02-11T02:36:24.592Z,1022.59
2023-02-11T02:37:24.591Z,1022.62
2023-02-11T02:38:24.569Z,1022.58
2023-02-11T02:39:24.566Z,1022.61
2023-02-11T02:40:24.547Z,1022.66
2023-02-11T02:41:24.546Z,1022.56
2023-02-11T02:42:24.518Z,1022.56
2023-02-11T02:43:24.528Z,1022.47
2023-02-11T02:44:24.498Z,1022.59
2023-02-11T02:45:24.485Z,1022.59
2023-02-11T02:46:24.574Z,1022.61
2023-02-11T02:47:24.478Z,1022.56
2023-02-11T02:48:24.445Z,1022.49
2023-02-11T02:49:24.443Z,1022.42
2023-02-11T02:50:24.407Z,1022.30
2023-02-11T02:51:24.406Z,1022.34
2023-02-11T02:52:24.412Z,1022.37
2023-02-11T02:53:24.377Z,1022.32
2023-02-11T02:54:24.357Z,1022.40
2023-02-11T02:55:24.358Z,1022.43
2023-02-11T02:56:24.374Z,1022.38
2023-02-11T02:57:24.326Z,1022.46
2023-02-11T02:58:24.330Z,1022.41
2023-02-11T02:59:24.369Z,1022.32
2023-02-11T03:00:24.324Z,1022.42
2023-02-11T03:01:24.317Z,1022.41
2023-02-11T03:02:24.306Z,1022.46
2023-02-11T03:03:24.358Z,1022.46
2023-02-11T03:04:24.296Z,1022.45
2023-02-11T03:05:24.257Z,1022.41
2023-02-11T03:06:24.221Z,1022.45
2023-02-11T03:07:24.242Z,1022.42
2023-02-11T03:08:24.206Z,1022.41
2023-02-11T03:09:24.211Z,1022.35
2023-02-11T03:10:24.174Z,1022.32
2023-02-11T03:11:24.148Z,1022.30
2023-02-11T03:12:24.142Z,1022.33
2023-02-11T03:13:24.119Z,1022.32
2023-02-11T03:14:24.120Z,1022.20
2023-02-11T03:15:24.120Z,1022.14
2023-02-11T03:16:24.136Z,1022.29
2023-02-11T03:17:24.095Z,1022.24
2023-02-11T03:18:24.078Z,1022.24
2023-02-11T03:19:24.069Z,1022.28
2023-02-11T03:20:24.035Z,1022.26
2023-02-11T03:21:24.032Z,1022.30
2023-02-11T03:22:24.033Z,1022.25
2023-02-11T03:23:24.021Z,1022.17
2023-02-11T03:24:23.978Z,1022.26
2023-02-11T03:25:23.982Z,1022.25
2023-02-11T03:26:23.962Z,1022.23
2023-02-11T03:27:23.953Z,1022.23
2023-02-11T03:28:23.977Z,1022.18
2023-02-11T03:29:23.938Z,1022.20
2023-02-11T03:30:23.898Z,1022.11
2023-02-11T03:31:24.070Z,1022.17
2023-02-11T03:32:23.894Z,1022.13
2023-02-11T03:33:23.866Z,1022.16
2023-02-11T03:34:23.858Z,1022.13
2023-02-11T03:35:23.852Z,1022.14
2023-02-11T03:36:23.818Z,1022.16
2023-02-11T03:37:23.822Z,1022.13
2023-02-11T03:38:23.808Z,1022.17
2023-02-11T03:39:23.805Z,1022.14
2023-02-11T03:40:23.769Z,1022.13
2023-02-11T03:41:23.780Z,1022.20
2023-02-11T03:42:23.761Z,1022.21
2023-02-11T03:43:23.737Z,1022.11
2023-02-11T03:44:23.731Z,1022.19
2023-02-11T03:45:23.708Z,1022.12
2023-02-11T03:46:23.821Z,1022.14
2023-02-11T03:47:23.707Z,1022.16
2023-02-11T03:48:23.678Z,1022.10
2023-02-11T03:49:23.657Z,1022.16
2023-02-11T03:50:23.649Z,1022.11
2023-02-11T03:51:23.652Z,1022.10
2023-02-11T03:52:23.631Z,1022.11
2023-02-11T03:53:23.624Z,1022.05
2023-02-11T03:54:23.623Z,1022.04
2023-02-11T03:55:23.587Z,1022.08
2023-02-11T03:56:23.586Z,1022.03
2023-02-11T03:57:23.560Z,1022.09
2023-02-11T03:58:23.551Z,1022.10
2023-02-11T03:59:23.528Z,1022.08
2023-02-11T04:00:23.528Z,1022.12
2023-02-11T04:01:23.643Z,1022.05
2023-02-11T04:02:23.511Z,1022.01
2023-02-11T04:03:23.515Z,1021.95
2023-02-11T04:04:23.468Z,1021.94
2023-02-11T04:05:23.447Z,1021.94
2023-02-11T04:06:23.442Z,1021.93
2023-02-11T04:07:23.437Z,1021.94
2023-02-11T04:08:23.430Z,1021.88
2023-02-11T04:09:23.420Z,1021.95
2023-02-11T04:10:23.405Z,1022.01
2023-02-11T04:11:23.406Z,1022.08
2023-02-11T04:12:23.365Z,1022.11
2023-02-11T04:13:23.369Z,1022.10
2023-02-11T04:14:23.345Z,1022.11
2023-02-11T04:15:23.373Z,1022.07
2023-02-11T04:16:23.440Z,1022.15
2023-02-11T04:17:23.313Z,1022.08
2023-02-11T04:18:23.310Z,1022.15
2023-02-11T04:19:23.268Z,1022.09
2023-02-11T04:20:23.266Z,1022.11
2023-02-11T04:21:23.257Z,1022.17
2023-02-11T04:22:23.270Z,1022.09
2023-02-11T04:23:23.232Z,1022.13
2023-02-11T04:24:23.207Z,1022.05
2023-02-11T04:25:23.219Z,1022.02
2023-02-11T04:26:23.191Z,1022.05
2023-02-11T04:27:23.167Z,1021.98
2023-02-11T04:28:23.208Z,1021.98
2023-02-11T04:29:23.162Z,1021.94
2023-02-11T04:30:23.157Z,1022.00
2023-02-11T04:31:23.246Z,1022.00
2023-02-11T04:32:23.124Z,1021.98
2023-02-11T04:33:23.114Z,1022.01
2023-02-11T04:34:23.090Z,1021.96
2023-02-11T04:35:23.072Z,1021.98
2023-02-11T04:36:23.066Z,1022.01
2023-02-11T04:37:23.071Z,1022.02
2023-02-11T04:38:23.041Z,1022.04
2023-02-11T04:39:23.028Z,1021.99
2023-02-11T04:40:23.001Z,1021.95
2023-02-11T04:41:22.989Z,1021.96
2023-02-11T04:42:22.978Z,1021.95
2023-02-11T04:43:22.974Z,1021.90
2023-02-11T04:44:22.962Z,1021.90
2023-02-11T04:45:22.971Z,1021.91
2023-02-11T04:46:23.005Z,1021.93
2023-02-11T04:47:22.911Z,1021.83
2023-02-11T04:48:22.918Z,1021.82
2023-02-11T04:49:22.878Z,1021.80
2023-02-11T04:50:22.893Z,1021.86
2023-02-11T04:51:22.857Z,1021.84
2023-02-11T04:52:22.871Z,1021.76
2023-02-11T04:53:22.838Z,1021.83
2023-02-11T04:54:22.829Z,1021.88
2023-02-11T04:55:22.828Z,1021.89
2023-02-11T04:56:22.815Z,1021.86
2023-02-11T04:57:22.804Z,1021.80
2023-02-11T04:58:22.768Z,1021.80
2023-02-11T04:59:22.773Z,1021.70
2023-02-11T05:00:22.769Z,1021.71
2023-02-11T05:01:22.774Z,1021.66
2023-02-11T05:02:22.742Z,1021.67
2023-02-11T05:03:22.714Z,1021.66
2023-02-11T05:04:22.812Z,1021.62
2023-02-11T05:05:22.682Z,1021.63
2023-02-11T05:06:22.722Z,1021.67
2023-02-11T05:07:22.662Z,1021.67
2023-02-11T05:08:22.644Z,1021.65
2023-02-11T05:09:22.635Z,1021.61
2023-02-11T05:10:22.628Z,1021.61
2023-02-11T05:11:22.600Z,1021.53
2023-02-11T05:12:22.594Z,1021.52
2023-02-11T05:13:22.572Z,1021.49
2023-02-11T05:14:22.570Z,1021.46
2023-02-11T05:15:22.561Z,1021.37
2023-02-11T05:16:22.581Z,1021.28
2023-02-11T05:17:22.531Z,1021.28
2023-02-11T05:18:22.523Z,1021.18
2023-02-11T05:19:22.486Z,1021.15
2023-02-11T05:20:22.510Z,1021.05
2023-02-11T05:21:22.473Z,1021.07
2023-02-11T05:22:22.462Z,1021.10
2023-02-11T05:23:22.456Z,1021.12
2023-02-11T05:24:22.448Z,1021.15
2023-02-11T05:25:22.416Z,1021.12
2023-02-11T05:26:22.409Z,1021.13
2023-02-11T05:27:22.398Z,1021.14
2023-02-11T05:28:22.445Z,1021.13
2023-02-11T05:29:22.347Z,1021.08
2023-02-11T05:30:22.377Z,1021.04
2023-02-11T05:31:22.354Z,1021.05
2023-02-11T05:32:22.334Z,1021.05
2023-02-11T05:33:22.320Z,1020.96
2023-02-11T05:34:22.322Z,1020.97
2023-02-11T05:35:22.316Z,1021.09
2023-02-11T05:36:22.273Z,1021.13
2023-02-11T05:37:22.310Z,1021.01
2023-02-11T05:38:22.246Z,1021.13
2023-02-11T05:39:22.241Z,1021.16
2023-02-11T05:40:22.227Z,1021.18
2023-02-11T05:41:22.233Z,1021.09
2023-02-11T05:42:22.209Z,1021.09
2023-02-11T05:43:22.198Z,1021.15
2023-02-11T05:44:22.166Z,1021.07
2023-02-11T05:45:22.159Z,1021.08
2023-02-11T05:46:22.177Z,1021.10
2023-02-11T05:47:22.125Z,1021.11
2023-02-11T05:48:22.144Z,1021.07
2023-02-11T05:49:22.124Z,1021.06
2023-02-11T05:50:22.108Z,1021.07
2023-02-11T05:51:22.110Z,1021.06
2023-02-11T05:52:22.084Z,1021.00
2023-02-11T05:53:22.075Z,1020.99
2023-02-11T05:54:22.045Z,1020.89
2023-02-11T05:55:22.025Z,1020.90
2023-02-11T05:56:22.028Z,1020.94
2023-02-11T05:57:22.015Z,1020.91
2023-02-11T05:58:21.995Z,1021.00
2023-02-11T05:59:21.989Z,1021.00
2023-02-11T06:00:21.972Z,1021.00
2023-02-11T06:01:21.969Z,1021.02
2023-02-11T06:02:21.957Z,1021.15
2023-02-11T06:03:21.965Z,1021.15
2023-02-11T06:04:21.935Z,1021.15
2023-02-11T06:05:21.909Z,1021.12
2023-02-11T06:06:21.888Z,1021.14
2023-02-11T06:07:21.894Z,1021.19
2023-02-11T06:08:21.863Z,1021.21
2023-02-11T06:09:21.872Z,1021.11
2023-02-11T06:10:21.849Z,1021.12
2023-02-11T06:11:21.814Z,1021.13
2023-02-11T06:12:21.806Z,1021.21
2023-02-11T06:13:21.800Z,1021.26
2023-02-11T06:14:21.811Z,1021.23
2023-02-11T06:15:21.765Z,1021.14
2023-02-11T06:16:21.808Z,1021.26
2023-02-11T06:17:21.751Z,1021.33
2023-02-11T06:18:21.736Z,1021.15
2023-02-11T06:19:21.754Z,1021.25
2023-02-11T06:20:21.706Z,1021.16
2023-02-11T06:21:21.694Z,1021.17
2023-02-11T06:22:21.701Z,1021.21
2023-02-11T06:23:21.678Z,1021.25
2023-02-11T06:24:44.371Z,1021.21
2023-02-11T06:25:22.693Z,1021.16
2023-02-11T06:26:21.656Z,1021.18
2023-02-11T06:27:21.615Z,1021.23
2023-02-11T06:28:21.649Z,1021.22
2023-02-11T06:29:21.599Z,1021.19
2023-02-11T06:30:21.626Z,1021.19
2023-02-11T06:31:21.650Z,1021.18
2023-02-11T06:32:42.231Z,1021.22
2023-02-11T06:33:22.549Z,1021.28
2023-02-11T06:34:21.540Z,1021.25
2023-02-11T06:35:21.514Z,1021.25
2023-02-11T06:36:21.517Z,1021.29
2023-02-11T06:37:21.524Z,1021.20
2023-02-11T06:38:21.486Z,1021.15
2023-02-11T06:39:21.463Z,1021.14
2023-02-11T06:40:21.456Z,1021.20
2023-02-11T06:41:21.457Z,1021.07
2023-02-11T06:42:21.497Z,1021.05
2023-02-11T06:43:21.437Z,1021.05
2023-02-11T06:44:21.420Z,1021.10
2023-02-11T06:45:21.384Z,1020.99
2023-02-11T06:46:21.480Z,1021.03
2023-02-11T06:47:21.406Z,1021.04
2023-02-11T06:48:21.433Z,1021.06
2023-02-11T06:49:21.335Z,1020.97
2023-02-11T06:50:21.338Z,1021.00
2023-02-11T06:51:21.357Z,1020.96
2023-02-11T06:52:21.365Z,1021.02
2023-02-11T06:53:21.306Z,1021.00
2023-02-11T06:54:21.282Z,1020.96
2023-02-11T06:55:21.257Z,1020.91
2023-02-11T06:56:21.283Z,1020.99
2023-02-11T06:57:21.264Z,1020.97
2023-02-11T06:58:21.244Z,1020.95
2023-02-11T06:59:21.208Z,1020.95
2023-02-11T07:00:21.222Z,1020.99
2023-02-11T07:01:21.338Z,1020.89
2023-02-11T07:02:21.433Z,1020.82
2023-02-11T07:03:21.287Z,1020.98
2023-02-11T07:04:21.176Z,1021.00
2023-02-11T07:05:21.170Z,1021.02
2023-02-11T07:06:21.137Z,1021.04
2023-02-11T07:07:21.130Z,1020.93
2023-02-11T07:08:21.148Z,1020.96
2023-02-11T07:09:21.101Z,1020.94
2023-02-11T07:10:21.120Z,1020.98
2023-02-11T07:11:21.090Z,1021.06
2023-02-11T07:12:21.076Z,1021.01
2023-02-11T07:13:21.090Z,1020.98
2023-02-11T07:14:21.047Z,1020.95
2023-02-11T07:15:21.016Z,1020.96
2023-02-11T07:16:21.170Z,1020.85
2023-02-11T07:17:20.985Z,1020.89
2023-02-11T07:18:20.975Z,1020.87
2023-02-11T07:19:20.977Z,1020.88
2023-02-11T07:20:20.959Z,1020.92
2023-02-11T07:21:20.935Z,1020.86
2023-02-11T07:22:20.967Z,1020.85
2023-02-11T07:23:20.919Z,1020.87
2023-02-11T07:24:20.910Z,1020.85
2023-02-11T07:25:20.880Z,1020.75
2023-02-11T07:26:20.876Z,1020.84
2023-02-11T07:27:20.879Z,1020.85
2023-02-11T07:28:20.890Z,1020.82
2023-02-11T07:29:20.842Z,1020.77
2023-02-11T07:30:20.840Z,1020.78
2023-02-11T07:31:20.930Z,1020.84
2023-02-11T07:32:20.880Z,1020.81
2023-02-11T07:33:20.807Z,1020.85
2023-02-11T07:34:20.783Z,1020.75
2023-02-11T07:35:20.770Z,1020.75
2023-02-11T07:36:20.752Z,1020.68
2023-02-11T07:37:20.774Z,1020.71
2023-02-11T07:38:20.736Z,1020.59
2023-02-11T07:39:20.777Z,1020.69
2023-02-11T07:40:20.708Z,1020.69
2023-02-11T07:41:20.680Z,1020.64
2023-02-11T07:42:20.693Z,1020.61
2023-02-11T07:43:20.698Z,1020.56
2023-02-11T07:44:20.694Z,1020.54
2023-02-11T07:45:20.647Z,1020.54
2023-02-11T07:46:20.658Z,1020.66
2023-02-11T07:47:20.634Z,1020.68
2023-02-11T07:48:20.592Z,1020.69
2023-02-11T07:49:20.588Z,1020.70
2023-02-11T07:50:20.574Z,1020.70
2023-02-11T07:51:20.556Z,1020.78
2023-02-11T07:52:20.562Z,1020.71
2023-02-11T07:53:20.595Z,1020.68
2023-02-11T07:54:20.549Z,1020.72
2023-02-11T07:55:20.503Z,1020.94
2023-02-11T07:56:20.515Z,1020.75
2023-02-11T07:57:20.488Z,1020.64
2023-02-11T07:58:20.479Z,1020.64
2023-02-11T07:59:20.470Z,1020.61
2023-02-11T08:00:21.283Z,1020.63
2023-02-11T08:01:20.497Z,1020.65
2023-02-11T08:02:20.485Z,1020.73
2023-02-11T08:03:20.427Z,1020.73
2023-02-11T08:04:27.447Z,1020.77
2023-02-11T08:05:20.400Z,1020.66
2023-02-11T08:06:20.411Z,1020.75
2023-02-11T08:07:20.362Z,1020.77
2023-02-11T08:08:21.101Z,1020.80
2023-02-11T08:09:21.118Z,1020.76
2023-02-11T08:10:20.334Z,1020.84
2023-02-11T08:11:20.324Z,1020.93
2023-02-11T08:12:20.276Z,1021.02
2023-02-11T08:13:20.280Z,1020.99
2023-02-11T08:14:20.256Z,1021.05
2023-02-11T08:15:20.269Z,1020.97
2023-02-11T08:16:20.323Z,1021.03
2023-02-11T08:17:20.232Z,1021.13
2023-02-11T08:18:20.234Z,1021.15
2023-02-11T08:19:20.203Z,1021.13
2023-02-11T08:20:20.288Z,1021.18
2023-02-11T08:21:20.184Z,1021.06
2023-02-11T08:22:20.166Z,1021.03
2023-02-11T08:23:20.143Z,1020.90
2023-02-11T08:24:20.122Z,1021.02
2023-02-11T08:25:20.124Z,1021.04
2023-02-11T08:26:20.117Z,1021.06
2023-02-11T08:27:20.106Z,1021.13
2023-02-11T08:28:20.157Z,1021.07
2023-02-11T08:29:20.107Z,1021.00
2023-02-11T08:30:20.065Z,1020.96
2023-02-11T08:31:20.154Z,1021.03
2023-02-11T08:32:20.106Z,1021.03
2023-02-11T08:33:20.034Z,1021.17
2023-02-11T08:34:20.011Z,1021.09
2023-02-11T08:35:20.028Z,1021.14
2023-02-11T08:36:19.970Z,1021.15
2023-02-11T08:37:19.993Z,1021.10
2023-02-11T08:38:19.942Z,1021.15
2023-02-11T08:39:20.766Z,1021.18
2023-02-11T08:40:19.937Z,1021.29
2023-02-11T08:41:19.965Z,1021.24
2023-02-11T08:42:19.898Z,1021.32
2023-02-11T08:43:19.902Z,1021.14
2023-02-11T08:44:19.883Z,1021.13
2023-02-11T08:45:19.886Z,1021.18
2023-02-11T08:46:19.917Z,1021.06
2023-02-11T08:47:19.857Z,1021.04
2023-02-11T08:48:19.822Z,1021.02
2023-02-11T08:49:19.824Z,1021.11
2023-02-11T08:50:19.825Z,1021.01
2023-02-11T08:51:19.806Z,1021.02
2023-02-11T08:52:19.945Z,1020.96
2023-02-11T08:53:19.772Z,1020.91
2023-02-11T08:54:19.785Z,1020.86
2023-02-11T08:55:19.752Z,1020.87
2023-02-11T08:56:19.727Z,1020.76
2023-02-11T08:57:19.726Z,1020.73
2023-02-11T08:58:19.698Z,1020.79
2023-02-11T08:59:19.701Z,1020.77
2023-02-11T09:00:19.676Z,1020.82
2023-02-11T09:01:22.303Z,1020.82
2023-02-11T09:02:19.719Z,1020.80
2023-02-11T09:03:19.654Z,1020.84
2023-02-11T09:04:19.628Z,1020.88
2023-02-11T09:05:19.631Z,1020.79
2023-02-11T09:06:19.683Z,1020.78
2023-02-11T09:07:19.599Z,1020.84
2023-02-11T09:08:19.580Z,1020.86
2023-02-11T09:09:19.566Z,1020.96
2023-02-11T09:10:19.542Z,1020.99
2023-02-11T09:11:19.542Z,1021.01
2023-02-11T09:12:19.510Z,1021.04
2023-02-11T09:13:19.516Z,1020.91
2023-02-11T09:14:19.515Z,1021.09
2023-02-11T09:15:19.495Z,1020.83
2023-02-11T09:16:19.531Z,1020.75
2023-02-11T09:17:19.468Z,1020.84
2023-02-11T09:18:19.452Z,1020.75
2023-02-11T09:19:19.438Z,1020.79
2023-02-11T09:20:19.411Z,1020.81
2023-02-11T09:21:19.416Z,1020.86
2023-02-11T09:22:19.406Z,1020.92
2023-02-11T09:23:19.378Z,1021.06
2023-02-11T09:24:19.364Z,1021.06
2023-02-11T09:25:19.343Z,1021.11
2023-02-11T09:26:19.350Z,1021.17
2023-02-11T09:27:19.323Z,1021.45
2023-02-11T09:28:19.335Z,1021.40
2023-02-11T09:29:19.297Z,1021.17
2023-02-11T09:30:19.297Z,1021.13
2023-02-11T09:31:19.477Z,1021.15
2023-02-11T09:32:19.292Z,1021.04
2023-02-11T09:33:19.269Z,1021.31
2023-02-11T09:34:19.262Z,1021.17
2023-02-11T09:35:19.247Z,1021.28
2023-02-11T09:36:19.242Z,1021.29
2023-02-11T09:37:19.216Z,1021.27
2023-02-11T09:38:19.209Z,1021.38
2023-02-11T09:39:19.190Z,1021.27
2023-02-11T09:40:19.177Z,1021.32
2023-02-11T09:41:19.176Z,1021.27
2023-02-11T09:42:19.176Z,1021.34
2023-02-11T09:43:19.139Z,1021.41
2023-02-11T09:44:19.138Z,1021.40
2023-02-11T09:45:19.117Z,1021.42
2023-02-11T09:46:19.141Z,1021.33
2023-02-11T09:47:19.078Z,1021.37
2023-02-11T09:48:19.079Z,1021.43
2023-02-11T09:49:19.058Z,1021.31
2023-02-11T09:50:19.024Z,1021.35
2023-02-11T09:51:19.035Z,1021.52
2023-02-11T09:52:19.035Z,1021.48
2023-02-11T09:53:19.018Z,1021.39
2023-02-11T09:54:19.006Z,1021.48
2023-02-11T09:55:18.998Z,1021.45
2023-02-11T09:56:18.956Z,1021.46
2023-02-11T09:57:28.248Z,1021.45
2023-02-11T09:58:20.034Z,1021.59
2023-02-11T09:59:18.955Z,1021.44
2023-02-11T10:00:18.911Z,1021.56
2023-02-11T10:01:21.011Z,1021.54
2023-02-11T10:02:18.903Z,1021.46
2023-02-11T10:03:18.923Z,1021.48
2023-02-11T10:04:18.977Z,1021.50
2023-02-11T10:05:18.893Z,1021.41
2023-02-11T10:06:18.873Z,1021.57
2023-02-11T10:07:18.820Z,1021.53
2023-02-11T10:08:18.803Z,1021.62
2023-02-11T10:09:18.800Z,1021.63
2023-02-11T10:10:18.791Z,1021.63
2023-02-11T10:11:30.986Z,1021.88
2023-02-11T10:12:19.770Z,1021.68
2023-02-11T10:13:18.744Z,1021.68
2023-02-11T10:14:18.742Z,1021.73
2023-02-11T10:15:18.759Z,1021.74
2023-02-11T10:16:18.699Z,1021.71
2023-02-11T10:17:18.728Z,1021.62
2023-02-11T10:18:18.680Z,1021.73
2023-02-11T10:19:18.811Z,1021.58
2023-02-11T10:20:18.682Z,1021.73
2023-02-11T10:21:18.680Z,1021.64
2023-02-11T10:22:18.702Z,1021.74
2023-02-11T10:23:18.643Z,1021.71
2023-02-11T10:24:18.621Z,1021.83
2023-02-11T10:25:18.589Z,1021.70
2023-02-11T10:26:18.646Z,1021.72
2023-02-11T10:27:18.597Z,1021.77
2023-02-11T10:28:18.640Z,1021.73
2023-02-11T10:29:18.552Z,1021.67
2023-02-11T10:30:18.539Z,1021.63
2023-02-11T10:31:18.649Z,1021.50
2023-02-11T10:32:18.499Z,1021.48
2023-02-11T10:33:18.502Z,1021.43
2023-02-11T10:34:18.486Z,1021.55
2023-02-11T10:35:18.470Z,1021.51
2023-02-11T10:36:18.440Z,1021.46
2023-02-11T10:37:18.457Z,1021.51
2023-02-11T10:38:18.421Z,1021.50
2023-02-11T10:39:18.431Z,1021.41
2023-02-11T10:40:18.519Z,1021.49
2023-02-11T10:41:18.424Z,1021.44
2023-02-11T10:42:18.367Z,1021.31
2023-02-11T10:43:18.400Z,1021.29
2023-02-11T10:44:18.348Z,1021.30
2023-02-11T10:45:18.381Z,1021.33
2023-02-11T10:46:18.338Z,1021.28
2023-02-11T10:47:18.343Z,1021.24
2023-02-11T10:48:18.372Z,1021.25
2023-02-11T10:49:18.306Z,1021.21
2023-02-11T10:50:18.319Z,1021.16
2023-02-11T10:51:18.267Z,1021.10
2023-02-11T10:52:18.261Z,1021.18
2023-02-11T10:53:18.254Z,1021.17
2023-02-11T10:54:18.219Z,1021.23
2023-02-11T10:55:18.212Z,1021.17
2023-02-11T10:56:18.191Z,1021.23
2023-02-11T10:57:18.184Z,1021.06
2023-02-11T10:58:18.160Z,1021.29
2023-02-11T10:59:21.046Z,1021.09
2023-02-11T11:00:18.209Z,1021.12
2023-02-11T11:01:24.297Z,1021.03
2023-02-11T11:02:19.109Z,1021.05
2023-02-11T11:03:18.111Z,1021.00
2023-02-11T11:04:18.156Z,1020.95
2023-02-11T11:05:18.094Z,1020.95
2023-02-11T11:06:18.101Z,1021.06
2023-02-11T11:07:18.101Z,1020.98
2023-02-11T11:08:18.030Z,1020.95
2023-02-11T11:09:18.030Z,1020.84
2023-02-11T11:10:18.023Z,1020.98
2023-02-11T11:11:18.027Z,1020.88
2023-02-11T11:12:18.024Z,1020.90
2023-02-11T11:13:17.970Z,1020.99
2023-02-11T11:14:17.974Z,1020.99
2023-02-11T11:15:18.014Z,1021.06
2023-02-11T11:16:18.030Z,1021.03
2023-02-11T11:17:17.924Z,1021.09
2023-02-11T11:18:23.052Z,1021.11
2023-02-11T11:19:18.933Z,1021.00
2023-02-11T11:20:17.880Z,1021.14
2023-02-11T11:21:17.943Z,1020.98
2023-02-11T11:22:17.852Z,1020.97
2023-02-11T11:23:17.861Z,1020.85
2023-02-11T11:24:17.831Z,1021.01
2023-02-11T11:25:17.849Z,1020.90
2023-02-11T11:26:17.823Z,1020.94
2023-02-11T11:27:17.813Z,1021.03
2023-02-11T11:28:17.809Z,1021.06
2023-02-11T11:29:17.797Z,1020.86
2023-02-11T11:30:17.783Z,1020.90
2023-02-11T11:31:17.879Z,1020.92
2023-02-11T11:32:19.575Z,1021.02
2023-02-11T11:33:17.810Z,1021.00
2023-02-11T11:34:17.714Z,1020.90
2023-02-11T11:35:17.689Z,1020.96
2023-02-11T11:36:17.834Z,1020.99
2023-02-11T11:37:17.691Z,1020.91
2023-02-11T11:38:17.667Z,1021.02
2023-02-11T11:39:17.637Z,1020.89
2023-02-11T11:40:17.640Z,1020.94
2023-02-11T11:41:17.645Z,1021.06
2023-02-11T11:42:17.609Z,1020.93
2023-02-11T11:43:17.610Z,1020.83
2023-02-11T11:44:17.585Z,1020.90
2023-02-11T11:45:17.564Z,1021.15
2023-02-11T11:46:17.652Z,1020.91
2023-02-11T11:47:17.577Z,1020.98
2023-02-11T11:48:17.539Z,1021.10
2023-02-11T11:49:17.558Z,1021.06
2023-02-11T11:50:20.137Z,1021.03
2023-02-11T11:51:17.488Z,1021.19
2023-02-11T11:52:17.472Z,1020.95
2023-02-11T11:53:17.474Z,1021.07
2023-02-11T11:54:17.456Z,1021.03
2023-02-11T11:55:17.465Z,1020.96
2023-02-11T11:56:17.431Z,1020.95
2023-02-11T11:57:17.431Z,1021.00
2023-02-11T11:58:17.401Z,1020.96
2023-02-11T11:59:17.398Z,1021.01
2023-02-11T12:00:17.376Z,1021.04
2023-02-11T12:01:17.353Z,1021.10
2023-02-11T12:02:17.414Z,1020.92
2023-02-11T12:03:17.366Z,1021.09
2023-02-11T12:04:17.328Z,1020.97
2023-02-11T12:05:17.316Z,1021.21